Weather reports worldwide

Advertisment
Puerto de san Isidro, Spain (8057): temperature & dewpoint: 06.12.2019 12:00:00 - 12.12.2019 12:00:00 (CET)Puerto de san Isidro, Spain (8057): wind speed & gusts: 06.12.2019 12:00:00 - 12.12.2019 12:00:00 (CET)Puerto de san Isidro, Spain (8057): wind direction: 06.12.2019 12:00:00 - 12.12.2019 12:00:00 (CET)Puerto de san Isidro, Spain (8057): visibility: 06.12.2019 12:00:00 - 12.12.2019 12:00:00 (CET)Puerto de san Isidro, Spain (8057): sunshine duration: 06.12.2019 12:00:00 - 12.12.2019 12:00:00 (CET)Puerto de san Isidro, Spain (8057): precipitation: 06.12.2019 12:00:00 - 12.12.2019 12:00:00 (CET)
Date & Time tt [°C] td [°C] ff [km/h] ff [kn] fx [km/h] fx [kn] dd vv [km] sd [min] rr [mm]
12.12.2019 12:00:00 - - - - - - - - - -
12.12.2019 11:00:00 1,8 -1,0 22 12 46 25 WSW 2,4 0 0,0
12.12.2019 10:00:00 -0,4 -1,2 13 7 16 9 E 1,3 0 0,0
12.12.2019 09:00:00 -0,6 -1,2 6 4 15 8 NE 0,9 0 0,0
12.12.2019 08:00:00 -0,6 -1,2 10 5 16 9 E 0,6 0 0,0
12.12.2019 07:00:00 -0,8 -1,4 10 5 18 10 E 0,3 0 -
12.12.2019 06:00:00 -0,7 -1,4 11 6 18 10 E 0,3 0 0,0
12.12.2019 05:00:00 0,0 -1,0 8 4 22 12 ENE 3,3 0 0,0
12.12.2019 04:00:00 0,4 -0,5 18 10 35 19 W 1,3 0 0,2
12.12.2019 03:00:00 0,8 -0,7 20 11 39 21 WNW 9 0 0,0
12.12.2019 02:00:00 0,5 -0,5 16 9 32 17 WNW 20 0 0,0
12.12.2019 01:00:00 0,5 -0,7 24 13 49 26 W 4,0 0 -
12.12.2019 00:00:00 0,4 -0,5 23 13 39 21 WNW 2,6 0 0,0
11.12.2019 23:00:00 0,4 -1,0 25 13 61 33 WNW 20 0 0,0
11.12.2019 22:00:00 0,2 -0,7 36 19 55 30 WNW 2,5 0 0,0
11.12.2019 21:00:00 0,2 -0,7 32 17 54 29 WNW 11 0 0,0
11.12.2019 20:00:00 0,8 -2,0 36 20 72 39 WNW 3,0 0 0,0
11.12.2019 19:00:00 0,8 -2,2 45 25 82 44 WNW 20 0 -
11.12.2019 18:00:00 1,1 -2,5 36 19 66 36 WNW 20 0 0,0
11.12.2019 17:00:00 1,2 -2,5 40 22 72 39 WNW 20 0 0,0
11.12.2019 16:00:00 0,9 -3,3 49 26 83 45 WNW 20 8 0,0
11.12.2019 15:00:00 0,8 -4,2 36 20 65 35 WNW 20 39 0,0
11.12.2019 14:00:00 0,0 -3,9 35 19 59 32 WNW 20 59 0,0
11.12.2019 13:00:00 -0,5 -2,5 22 12 39 21 W 20 52 -
11.12.2019 12:00:00 -0,8 -2,2 19 10 52 28 W 20 59 0,0
11.12.2019 11:00:00 -1,1 -2,5 30 16 72 39 WNW 20 16 0,0
11.12.2019 10:00:00 -1,0 -2,0 40 21 69 38 WNW 14 0 0,0
11.12.2019 09:00:00 -0,8 -1,7 47 26 68 37 W 0,4 0 0,0
11.12.2019 08:00:00 -0,2 -1,0 31 17 47 26 W 1,7 0 0,0
11.12.2019 07:00:00 0,1 -0,7 36 19 48 26 W 0,8 0 -
11.12.2019 06:00:00 0,8 -0,3 25 14 37 20 W 2,7 0 1,4
11.12.2019 05:00:00 2,3 0,9 10 6 23 12 WNW 6 0 2,0
11.12.2019 04:00:00 1,1 -2,0 1 1 12 6 WSW 8 0 0,6
11.12.2019 03:00:00 1,0 -3,0 8 4 15 8 E 20 0 0,0
11.12.2019 02:00:00 1,4 -3,3 5 3 9 5 ESE 20 0 0,0
11.12.2019 01:00:00 1,3 -3,3 4 2 9 5 SE 20 0 -
11.12.2019 00:00:00 1,8 -3,0 3 2 18 10 E 20 0 0,0
10.12.2019 23:00:00 2,1 -3,3 4 2 14 8 SSE 20 0 0,0
10.12.2019 22:00:00 2,0 -3,6 8 4 13 7 SE 20 0 0,0
10.12.2019 21:00:00 1,8 -3,3 3 2 12 6 ESE 20 0 0,0
10.12.2019 20:00:00 2,2 -3,6 3 1 10 5 SSW 20 0 0,0
10.12.2019 19:00:00 2,9 -3,0 5 3 9 5 ESE 20 0 -
10.12.2019 18:00:00 3,3 -3,0 4 2 13 7 E 20 0 0,0
10.12.2019 17:00:00 3,8 -3,9 5 3 9 5 ESE 20 0 0,0
10.12.2019 16:00:00 4,7 -4,5 3 2 9 5 ESE 20 3 0,0
10.12.2019 15:00:00 5,3 -4,8 8 4 12 6 SSE 20 6 0,0
10.12.2019 14:00:00 4,7 -4,8 5 3 12 7 ESE 20 2 0,0
10.12.2019 13:00:00 5,3 -6,4 4 2 9 5 ESE 20 41 -
10.12.2019 12:00:00 4,4 -7,5 4 2 9 5 SSE 20 16 0,0
10.12.2019 11:00:00 3,7 -6,7 4 2 9 5 SE 20 49 0,0
10.12.2019 10:00:00 1,2 -6,7 3 2 7 4 W 20 3 0,0
10.12.2019 09:00:00 -0,8 -7,5 3 1 5 3 NW 20 0 0,0
10.12.2019 08:00:00 -2,3 -8,2 2 1 5 3 W 20 0 0,0
10.12.2019 07:00:00 -1,7 -8,2 1 1 7 4 E 20 0 -
10.12.2019 06:00:00 -2,1 -7,8 4 2 6 4 WNW 20 0 0,0
10.12.2019 05:00:00 -2,0 -8,2 1 1 6 3 W 20 0 0,0
10.12.2019 04:00:00 -0,1 -7,5 2 1 9 5 SSW 20 0 0,0
10.12.2019 03:00:00 0,3 -7,5 3 2 13 7 W 20 0 0,0
10.12.2019 02:00:00 0,5 -7,5 7 4 16 9 NW 20 0 0,0
10.12.2019 01:00:00 1,0 -7,5 13 7 23 12 WNW 20 0 -
10.12.2019 00:00:00 0,9 -7,5 10 5 20 11 W 20 0 0,0
09.12.2019 23:00:00 2,6 -7,5 6 4 27 14 WNW 20 0 0,0
09.12.2019 22:00:00 2,8 -7,8 16 8 24 13 W 20 0 0,0
09.12.2019 21:00:00 0,5 -1,7 15 8 31 17 W 20 0 0,0
09.12.2019 20:00:00 0,9 -1,4 20 11 27 15 W 20 0 0,0
09.12.2019 19:00:00 1,5 -1,0 13 7 33 18 WNW 18 0 -
09.12.2019 18:00:00 1,7 -0,7 16 9 38 20 NW 20 0 0,0
09.12.2019 17:00:00 1,9 -0,5 24 13 45 24 WNW 20 0 0,0
09.12.2019 16:00:00 2,1 -0,5 28 15 62 33 WNW 20 0 0,0
09.12.2019 15:00:00 2,4 -1,0 29 16 63 34 NW 20 29 0,0
09.12.2019 14:00:00 2,8 -0,7 39 21 67 36 WNW 20 60 0,0
09.12.2019 13:00:00 2,5 -0,5 36 19 67 36 WNW 20 57 -
09.12.2019 12:00:00 2,2 -0,5 36 19 60 32 W 20 54 0,0
09.12.2019 11:00:00 1,8 -0,7 35 19 61 33 W 20 42 0,0
09.12.2019 10:00:00 1,6 -0,7 37 20 66 35 W 20 5 0,0
09.12.2019 09:00:00 0,8 -1,2 26 14 61 33 W 13 0 0,0
09.12.2019 08:00:00 -0,5 -5,4 19 10 41 22 WNW 20 0 0,0
09.12.2019 07:00:00 1,1 -8,6 34 18 41 22 W 20 0 -
09.12.2019 06:00:00 2,6 -10,8 29 16 53 29 W 20 0 0,0
09.12.2019 05:00:00 3,2 -11,7 31 17 50 27 W 20 0 0,0
09.12.2019 04:00:00 3,7 -12,8 30 16 50 27 W 20 0 0,0
09.12.2019 03:00:00 2,6 -10,8 26 14 48 26 W 20 0 0,0
09.12.2019 02:00:00 2,8 -11,7 27 15 40 21 W 20 0 0,0
09.12.2019 01:00:00 2,7 -9,9 22 12 44 24 W 20 0 -
09.12.2019 00:00:00 2,7 -8,2 19 11 45 25 W 20 0 0,0
08.12.2019 23:00:00 3,6 -7,1 21 11 37 20 WNW 20 0 0,0
08.12.2019 22:00:00 3,3 -6,7 23 12 44 24 W 20 0 0,0
08.12.2019 21:00:00 3,1 -6,7 18 10 30 16 W 20 0 0,0
08.12.2019 20:00:00 3,1 1,3 23 12 37 20 W 20 0 0,0
08.12.2019 19:00:00 3,5 2,1 23 13 37 20 W 20 0 -
08.12.2019 18:00:00 3,9 2,3 19 11 34 19 W 20 0 0,0
08.12.2019 17:00:00 4,8 3,0 25 14 45 25 W 20 0 0,0
08.12.2019 16:00:00 5,8 3,8 25 13 64 34 WNW 20 0 0,0
08.12.2019 15:00:00 6,4 4,6 37 20 59 32 WNW 12 0 0,4
08.12.2019 14:00:00 6,7 5,6 28 15 48 26 W 1,1 0 0,6
08.12.2019 13:00:00 6,7 5,8 23 12 42 23 W 1,3 0 -
08.12.2019 12:00:00 6,7 5,8 22 12 36 20 W 3,2 0 3,8
08.12.2019 11:00:00 4,0 2,7 11 6 14 8 WNW 0,3 0 3,4
08.12.2019 10:00:00 3,7 2,3 3 2 9 5 ENE 3,9 0 0,6
08.12.2019 09:00:00 2,7 1,3 2 1 9 5 ESE 20 0 0,0
08.12.2019 08:00:00 2,9 1,7 3 2 5 3 SE 15 0 0,0
08.12.2019 07:00:00 2,5 1,3 2 1 6 4 N 8 0 -
08.12.2019 06:00:00 2,7 1,3 3 1 10 5 ESE 7 0 0,0
08.12.2019 05:00:00 2,5 1,3 4 2 7 4 SE 9 0 0,0
08.12.2019 04:00:00 2,3 1,1 4 2 10 5 SE 10 0 0,0
08.12.2019 03:00:00 1,7 0,6 4 2 12 7 ESE 13 0 0,2
08.12.2019 02:00:00 1,0 0,0 3 2 8 4 SE 20 0 0,0
08.12.2019 01:00:00 0,6 -0,5 3 2 6 4 WNW 12 0 -
08.12.2019 00:00:00 0,1 -1,2 3 1 5 3 WSW 5 0 0,0
07.12.2019 23:00:00 0,5 -1,0 2 1 6 3 W 20 0 0,0
07.12.2019 22:00:00 1,9 -0,3 2 1 8 4 N 20 0 0,0
07.12.2019 21:00:00 3,7 1,3 7 4 11 6 SE 20 0 0,0
07.12.2019 20:00:00 3,3 1,1 3 2 9 5 E 20 0 0,0
07.12.2019 19:00:00 3,3 0,4 3 2 9 5 S 20 0 -
07.12.2019 18:00:00 3,9 0,6 5 3 8 4 W 20 0 0,0
07.12.2019 17:00:00 5,0 1,5 1 1 6 4 W 20 0 0,0
07.12.2019 16:00:00 6,6 1,9 3 1 9 5 WSW 20 33 0,0
07.12.2019 15:00:00 8,0 2,7 8 4 18 10 W 20 60 0,0
07.12.2019 14:00:00 7,6 2,3 8 4 20 11 WNW 20 58 0,0
07.12.2019 13:00:00 7,3 2,5 5 3 11 6 W 20 24 -
07.12.2019 12:00:00 5,5 1,7 8 4 16 9 WNW 20 5 0,0
07.12.2019 11:00:00 4,6 1,1 8 4 11 6 WNW 20 1 0,0
07.12.2019 10:00:00 3,9 1,5 4 2 8 4 W 20 0 0,0
07.12.2019 09:00:00 2,4 -0,7 3 2 5 3 WNW 20 0 0,0
07.12.2019 08:00:00 3,0 0,0 2 1 6 4 E 20 0 0,0
07.12.2019 07:00:00 1,8 -1,2 5 3 9 5 W 20 0 -
07.12.2019 06:00:00 -0,6 -3,9 4 2 6 4 W 20 0 0,0
07.12.2019 05:00:00 -0,5 -3,6 1 1 4 2 SSW 20 0 0,0
07.12.2019 04:00:00 -0,2 -4,2 2 1 5 3 WNW 20 0 0,0
07.12.2019 03:00:00 1,1 -3,3 3 1 8 4 W 20 0 0,0
07.12.2019 02:00:00 2,7 -2,7 2 1 14 8 WSW 20 0 0,0
07.12.2019 01:00:00 3,4 -3,9 8 4 14 7 WNW 20 0 -
07.12.2019 00:00:00 2,6 -4,5 10 6 19 10 WNW 20 0 0,0
06.12.2019 23:00:00 2,8 -4,8 9 5 25 14 WNW 20 0 0,0
06.12.2019 22:00:00 3,5 -5,1 11 6 21 12 WNW 20 0 0,0
06.12.2019 21:00:00 5,1 -6,7 16 9 22 12 W 20 0 0,0
06.12.2019 20:00:00 5,2 -4,2 21 11 25 14 W 20 0 0,0
06.12.2019 19:00:00 4,5 -2,5 18 10 24 13 W 20 0 -
06.12.2019 18:00:00 4,4 -1,0 10 6 16 9 NW 20 0 0,0
06.12.2019 17:00:00 5,0 -1,0 10 6 18 10 WNW 20 0 0,0
06.12.2019 16:00:00 5,0 -0,7 2 1 5 3 SE 20 0 0,0
06.12.2019 15:00:00 5,4 -1,2 3 2 8 4 SE 20 0 0,0
06.12.2019 14:00:00 6,1 -1,7 6 3 14 7 E 20 42 0,0
06.12.2019 13:00:00 5,4 -1,4 2 1 5 3 E 20 45 -
06.12.2019 12:00:00 4,2 -2,0 2 1 7 4 SE 20 60 0,0

tt = temperature
td = dewpoint
ff = wind speed
fx = gusts
dd = wind direction
vv = visibility
sd = sunshine duration
rr = precipitation

Next stations